This is the latest recevied weather packets stored in our database for station/object EFHKFMI. If no packets are shown the sender has not sent any weather packets the latest 10 day(s).
| Time | Temp. | Humidity | Pressure | Rain* | Wind** | Luminosity | Snow |
|---|---|---|---|---|---|---|---|
| 1788421478 | 16.11° C | 69% | 1005.9 hPa | 0 mm | - | - | - |
| 1788420278 | 16.67° C | 69% | 1005.8 hPa | 0 mm | - | - | - |
| 1788417878 | 15.56° C | 78% | 1005.9 hPa | 0 mm | - | - | - |
| 1788416677 | 15° C | 82% | 1005.9 hPa | 0 mm | - | - | - |
| 1788415477 | 14.44° C | 86% | 1005.9 hPa | 0 mm | - | - | - |
| 1788414277 | 13.89° C | 86% | 1005.9 hPa | 0 mm | - | - | - |
| 1788411877 | 13.89° C | 87% | 1005.8 hPa | 0 mm | - | - | - |
| 1788410677 | 14.44° C | 89% | 1006 hPa | 0 mm | - | - | - |
| 1788409478 | 15° C | 90% | 1005.9 hPa | 0 mm | - | - | - |
| 1788407077 | 14.44° C | 97% | 1006 hPa | 0 mm | - | - | - |
| 1788405878 | 15° C | 96% | 1005.9 hPa | 0 mm | - | - | - |
| 1788404676 | 15° C | 95% | 1006 hPa | 0 mm | - | - | - |
| 1788403476 | 15° C | 94% | 1006 hPa | 0 mm | - | - | - |
| 1788375877 | 14.44° C | 95% | 1007.9 hPa | 0 mm | - | - | - |
| 1788372274 | 15.56° C | 83% | 1007.9 hPa | 0 mm | - | - | - |
| 1788369874 | 16.67° C | 77% | 1007.7 hPa | 0 mm | - | - | - |
| 1788368676 | 17.78° C | 72% | 1007.5 hPa | 0 mm | - | - | - |
| 1788365074 | 19.44° C | 55% | 1007.4 hPa | 0 mm | - | - | - |
| 1788362674 | 20° C | 54% | 1007.6 hPa | 0 mm | - | - | - |
| 1788360275 | 20° C | 54% | 1007.6 hPa | 0 mm | - | - | - |
| 1788359074 | 20° C | 54% | 1007.7 hPa | 0 mm | - | - | - |
| 1788357876 | 20° C | 54% | 1007.6 hPa | 0 mm | - | - | - |
| 1788355473 | 19.44° C | 51% | 1007.7 hPa | 0 mm | - | - | - |
| 1788354274 | 18.89° C | 54% | 1007.7 hPa | 0 mm | - | - | - |
| 1788351873 | 19.44° C | 54% | 1007.7 hPa | 0 mm | - | - | - |
* Rain latest hour (hover to see other rain measurements)
** Current wind speed in m/s (hover to see current wind gust speed)